sensor_id;sensor_type;location;lat;lon;timestamp;temperature;humidity
74968;SHT30;63523;51.880;12.630;2023-07-24T00:01:12;20.03;69.16
74968;SHT30;63523;51.880;12.630;2023-07-24T00:03:37;20.00;69.14
74968;SHT30;63523;51.880;12.630;2023-07-24T00:06:02;19.97;68.68
74968;SHT30;63523;51.880;12.630;2023-07-24T00:08:28;20.00;68.71
74968;SHT30;63523;51.880;12.630;2023-07-24T00:10:53;20.00;68.54
74968;SHT30;63523;51.880;12.630;2023-07-24T00:13:18;20.04;68.93
74968;SHT30;63523;51.880;12.630;2023-07-24T00:15:44;20.06;68.88
74968;SHT30;63523;51.880;12.630;2023-07-24T00:18:10;20.04;69.13
74968;SHT30;63523;51.880;12.630;2023-07-24T00:20:35;20.00;69.43
74968;SHT30;63523;51.880;12.630;2023-07-24T00:23:00;19.96;70.95
74968;SHT30;63523;51.880;12.630;2023-07-24T00:25:26;19.89;72.86
74968;SHT30;63523;51.880;12.630;2023-07-24T00:27:51;19.80;74.04
74968;SHT30;63523;51.880;12.630;2023-07-24T00:30:16;19.65;73.77
74968;SHT30;63523;51.880;12.630;2023-07-24T00:32:41;19.56;74.06
74968;SHT30;63523;51.880;12.630;2023-07-24T00:35:07;19.48;74.49
74968;SHT30;63523;51.880;12.630;2023-07-24T00:37:32;19.44;74.20
74968;SHT30;63523;51.880;12.630;2023-07-24T00:39:58;19.39;74.98
74968;SHT30;63523;51.880;12.630;2023-07-24T00:42:23;19.36;74.78
74968;SHT30;63523;51.880;12.630;2023-07-24T00:44:48;19.32;74.20
74968;SHT30;63523;51.880;12.630;2023-07-24T00:47:14;19.32;74.24
74968;SHT30;63523;51.880;12.630;2023-07-24T00:49:40;19.39;74.08
74968;SHT30;63523;51.880;12.630;2023-07-24T00:52:06;19.46;74.02
74968;SHT30;63523;51.880;12.630;2023-07-24T00:54:32;19.48;73.77
74968;SHT30;63523;51.880;12.630;2023-07-24T00:56:58;19.52;72.90
74968;SHT30;63523;51.880;12.630;2023-07-24T00:59:23;19.55;73.52
74968;SHT30;63523;51.880;12.630;2023-07-24T01:01:49;19.52;73.50
74968;SHT30;63523;51.880;12.630;2023-07-24T01:04:14;19.52;73.28
74968;SHT30;63523;51.880;12.630;2023-07-24T01:06:40;19.56;72.86
74968;SHT30;63523;51.880;12.630;2023-07-24T01:09:05;19.55;73.05
74968;SHT30;63523;51.880;12.630;2023-07-24T01:11:41;19.59;73.03
74968;SHT30;63523;51.880;12.630;2023-07-24T01:14:36;19.63;73.29
74968;SHT30;63523;51.880;12.630;2023-07-24T01:17:06;19.66;72.85
74968;SHT30;63523;51.880;12.630;2023-07-24T01:19:45;19.72;72.23
74968;SHT30;63523;51.880;12.630;2023-07-24T01:22:23;19.72;72.28
74968;SHT30;63523;51.880;12.630;2023-07-24T01:27:51;19.79;71.85
74968;SHT30;63523;51.880;12.630;2023-07-24T01:30:18;19.80;71.79
74968;SHT30;63523;51.880;12.630;2023-07-24T01:32:43;19.83;72.09
74968;SHT30;63523;51.880;12.630;2023-07-24T01:35:09;19.80;71.71
74968;SHT30;63523;51.880;12.630;2023-07-24T01:37:35;19.81;71.83
74968;SHT30;63523;51.880;12.630;2023-07-24T01:40:02;19.80;72.04
74968;SHT30;63523;51.880;12.630;2023-07-24T01:42:27;19.80;71.95
74968;SHT30;63523;51.880;12.630;2023-07-24T01:44:54;19.76;71.99
74968;SHT30;63523;51.880;12.630;2023-07-24T01:47:20;19.76;71.95
74968;SHT30;63523;51.880;12.630;2023-07-24T01:49:45;19.77;72.04
74968;SHT30;63523;51.880;12.630;2023-07-24T01:52:10;19.77;71.93
74968;SHT30;63523;51.880;12.630;2023-07-24T01:54:36;19.77;72.14
74968;SHT30;63523;51.880;12.630;2023-07-24T01:57:01;19.79;72.41
74968;SHT30;63523;51.880;12.630;2023-07-24T01:59:26;19.76;72.06
74968;SHT30;63523;51.880;12.630;2023-07-24T02:01:51;19.79;72.58
74968;SHT30;63523;51.880;12.630;2023-07-24T02:04:17;19.73;72.10
74968;SHT30;63523;51.880;12.630;2023-07-24T02:06:42;19.69;72.33
74968;SHT30;63523;51.880;12.630;2023-07-24T02:09:07;19.69;72.17
74968;SHT30;63523;51.880;12.630;2023-07-24T02:11:33;19.66;72.80
74968;SHT30;63523;51.880;12.630;2023-07-24T02:13:59;19.62;72.22
74968;SHT30;63523;51.880;12.630;2023-07-24T02:16:24;19.63;71.91
74968;SHT30;63523;51.880;12.630;2023-07-24T02:18:50;19.65;72.31
74968;SHT30;63523;51.880;12.630;2023-07-24T02:21:15;19.67;72.57
74968;SHT30;63523;51.880;12.630;2023-07-24T02:23:40;19.69;72.83
74968;SHT30;63523;51.880;12.630;2023-07-24T02:26:05;19.69;72.41
74968;SHT30;63523;51.880;12.630;2023-07-24T02:28:31;19.67;72.43
74968;SHT30;63523;51.880;12.630;2023-07-24T02:30:56;19.67;72.06
74968;SHT30;63523;51.880;12.630;2023-07-24T02:33:22;19.70;72.40
74968;SHT30;63523;51.880;12.630;2023-07-24T02:35:49;19.70;71.68
74968;SHT30;63523;51.880;12.630;2023-07-24T02:38:16;19.74;71.42
74968;SHT30;63523;51.880;12.630;2023-07-24T02:40:41;19.79;72.51
74968;SHT30;63523;51.880;12.630;2023-07-24T02:43:06;19.83;72.76
74968;SHT30;63523;51.880;12.630;2023-07-24T02:45:35;19.86;72.63
74968;SHT30;63523;51.880;12.630;2023-07-24T02:48:00;19.84;72.86
74968;SHT30;63523;51.880;12.630;2023-07-24T02:50:27;19.87;72.34
74968;SHT30;63523;51.880;12.630;2023-07-24T02:52:52;19.93;72.95
74968;SHT30;63523;51.880;12.630;2023-07-24T02:55:17;19.98;73.39
74968;SHT30;63523;51.880;12.630;2023-07-24T02:57:43;19.98;73.49
74968;SHT30;63523;51.880;12.630;2023-07-24T03:00:08;19.97;73.32
74968;SHT30;63523;51.880;12.630;2023-07-24T03:02:34;19.93;72.80
74968;SHT30;63523;51.880;12.630;2023-07-24T03:04:59;19.89;72.77
74968;SHT30;63523;51.880;12.630;2023-07-24T03:07:25;19.83;73.37
74968;SHT30;63523;51.880;12.630;2023-07-24T03:09:50;19.80;73.19
74968;SHT30;63523;51.880;12.630;2023-07-24T03:12:16;19.73;72.80
74968;SHT30;63523;51.880;12.630;2023-07-24T03:14:41;19.72;72.24
74968;SHT30;63523;51.880;12.630;2023-07-24T03:17:06;19.73;72.43
74968;SHT30;63523;51.880;12.630;2023-07-24T03:19:31;19.76;72.56
74968;SHT30;63523;51.880;12.630;2023-07-24T03:21:57;19.74;72.22
74968;SHT30;63523;51.880;12.630;2023-07-24T03:24:22;19.74;71.94
74968;SHT30;63523;51.880;12.630;2023-07-24T03:26:48;19.77;71.86
74968;SHT30;63523;51.880;12.630;2023-07-24T03:29:13;19.80;71.81
74968;SHT30;63523;51.880;12.630;2023-07-24T03:31:38;19.80;71.71
74968;SHT30;63523;51.880;12.630;2023-07-24T03:34:04;19.83;71.84
74968;SHT30;63523;51.880;12.630;2023-07-24T03:36:29;19.81;72.50
74968;SHT30;63523;51.880;12.630;2023-07-24T03:38:54;19.84;72.44
74968;SHT30;63523;51.880;12.630;2023-07-24T03:41:19;19.86;71.95
74968;SHT30;63523;51.880;12.630;2023-07-24T03:43:45;19.87;71.85
74968;SHT30;63523;51.880;12.630;2023-07-24T03:46:10;19.89;71.81
74968;SHT30;63523;51.880;12.630;2023-07-24T03:48:35;19.84;71.63
74968;SHT30;63523;51.880;12.630;2023-07-24T03:51:01;19.84;71.62
74968;SHT30;63523;51.880;12.630;2023-07-24T03:53:27;19.86;71.41
74968;SHT30;63523;51.880;12.630;2023-07-24T03:55:52;19.94;71.54
74968;SHT30;63523;51.880;12.630;2023-07-24T03:58:18;20.00;71.31
74968;SHT30;63523;51.880;12.630;2023-07-24T04:00:43;20.08;71.12
74968;SHT30;63523;51.880;12.630;2023-07-24T04:03:09;20.18;70.91
74968;SHT30;63523;51.880;12.630;2023-07-24T04:08:05;20.45;69.97
74968;SHT30;63523;51.880;12.630;2023-07-24T04:10:30;20.59;69.91
74968;SHT30;63523;51.880;12.630;2023-07-24T04:12:56;20.79;69.02
74968;SHT30;63523;51.880;12.630;2023-07-24T04:15:22;21.03;68.55
74968;SHT30;63523;51.880;12.630;2023-07-24T04:17:47;21.23;67.80
74968;SHT30;63523;51.880;12.630;2023-07-24T04:20:13;21.38;67.71
74968;SHT30;63523;51.880;12.630;2023-07-24T04:22:38;21.49;67.09
74968;SHT30;63523;51.880;12.630;2023-07-24T04:25:03;21.56;66.71
74968;SHT30;63523;51.880;12.630;2023-07-24T04:27:29;21.56;66.13
74968;SHT30;63523;51.880;12.630;2023-07-24T04:29:54;21.58;66.20
74968;SHT30;63523;51.880;12.630;2023-07-24T04:32:19;21.53;66.13
74968;SHT30;63523;51.880;12.630;2023-07-24T04:34:45;21.46;66.67
74968;SHT30;63523;51.880;12.630;2023-07-24T04:37:11;21.34;66.94
74968;SHT30;63523;51.880;12.630;2023-07-24T04:39:38;21.24;67.31
74968;SHT30;63523;51.880;12.630;2023-07-24T04:42:04;21.03;67.99
74968;SHT30;63523;51.880;12.630;2023-07-24T04:44:29;20.86;68.47
74968;SHT30;63523;51.880;12.630;2023-07-24T04:46:55;20.75;69.06
74968;SHT30;63523;51.880;12.630;2023-07-24T04:49:21;20.66;69.10
74968;SHT30;63523;51.880;12.630;2023-07-24T04:51:46;20.55;69.68
74968;SHT30;63523;51.880;12.630;2023-07-24T04:54:11;20.52;69.95
74968;SHT30;63523;51.880;12.630;2023-07-24T04:56:36;20.49;69.53
74968;SHT30;63523;51.880;12.630;2023-07-24T04:59:02;20.57;69.56
74968;SHT30;63523;51.880;12.630;2023-07-24T05:01:27;20.73;69.00
74968;SHT30;63523;51.880;12.630;2023-07-24T05:03:52;20.86;68.91
74968;SHT30;63523;51.880;12.630;2023-07-24T05:06:18;21.03;68.34
74968;SHT30;63523;51.880;12.630;2023-07-24T05:08:43;21.23;68.20
74968;SHT30;63523;51.880;12.630;2023-07-24T05:11:08;21.42;67.10
74968;SHT30;63523;51.880;12.630;2023-07-24T05:13:33;21.59;67.03
74968;SHT30;63523;51.880;12.630;2023-07-24T05:15:59;21.67;66.55
74968;SHT30;63523;51.880;12.630;2023-07-24T05:18:24;21.80;65.22
74968;SHT30;63523;51.880;12.630;2023-07-24T05:20:49;21.94;64.71
74968;SHT30;63523;51.880;12.630;2023-07-24T05:23:18;21.97;65.14
74968;SHT30;63523;51.880;12.630;2023-07-24T05:25:43;22.06;65.41
74968;SHT30;63523;51.880;12.630;2023-07-24T05:28:09;22.10;64.20
74968;SHT30;63523;51.880;12.630;2023-07-24T05:30:34;22.08;64.38
74968;SHT30;63523;51.880;12.630;2023-07-24T05:33:00;22.20;64.22
74968;SHT30;63523;51.880;12.630;2023-07-24T05:35:25;22.28;63.43
74968;SHT30;63523;51.880;12.630;2023-07-24T05:37:50;22.37;64.32
74968;SHT30;63523;51.880;12.630;2023-07-24T05:40:16;22.53;63.16
74968;SHT30;63523;51.880;12.630;2023-07-24T05:42:41;22.55;62.57
74968;SHT30;63523;51.880;12.630;2023-07-24T05:45:09;22.63;62.73
74968;SHT30;63523;51.880;12.630;2023-07-24T05:47:36;22.62;62.30
74968;SHT30;63523;51.880;12.630;2023-07-24T05:50:01;22.63;62.53
74968;SHT30;63523;51.880;12.630;2023-07-24T05:52:26;22.62;63.21
74968;SHT30;63523;51.880;12.630;2023-07-24T05:54:52;22.66;63.01
74968;SHT30;63523;51.880;12.630;2023-07-24T05:57:17;22.62;62.34
74968;SHT30;63523;51.880;12.630;2023-07-24T05:59:42;22.70;61.91
74968;SHT30;63523;51.880;12.630;2023-07-24T06:02:08;22.80;61.68
74968;SHT30;63523;51.880;12.630;2023-07-24T06:04:34;22.80;61.79
74968;SHT30;63523;51.880;12.630;2023-07-24T06:06:59;22.93;62.94
74968;SHT30;63523;51.880;12.630;2023-07-24T06:09:24;22.87;61.56
74968;SHT30;63523;51.880;12.630;2023-07-24T06:11:50;22.80;62.76
74968;SHT30;63523;51.880;12.630;2023-07-24T06:14:16;22.80;61.53
74968;SHT30;63523;51.880;12.630;2023-07-24T06:16:41;22.83;61.53
74968;SHT30;63523;51.880;12.630;2023-07-24T06:19:06;22.89;62.10
74968;SHT30;63523;51.880;12.630;2023-07-24T06:21:32;22.93;62.51
74968;SHT30;63523;51.880;12.630;2023-07-24T06:23:57;22.99;61.94
74968;SHT30;63523;51.880;12.630;2023-07-24T06:26:22;23.02;61.99
74968;SHT30;63523;51.880;12.630;2023-07-24T06:28:47;23.00;61.09
74968;SHT30;63523;51.880;12.630;2023-07-24T06:31:13;23.02;60.92
74968;SHT30;63523;51.880;12.630;2023-07-24T06:33:38;23.06;60.45
74968;SHT30;63523;51.880;12.630;2023-07-24T06:36:04;23.08;60.82
74968;SHT30;63523;51.880;12.630;2023-07-24T06:38:33;23.11;59.78
74968;SHT30;63523;51.880;12.630;2023-07-24T06:40:58;23.23;59.22
74968;SHT30;63523;51.880;12.630;2023-07-24T06:43:24;23.27;58.76
74968;SHT30;63523;51.880;12.630;2023-07-24T06:45:49;23.40;57.98
74968;SHT30;63523;51.880;12.630;2023-07-24T06:48:14;23.58;58.53
74968;SHT30;63523;51.880;12.630;2023-07-24T06:50:40;23.75;56.88
74968;SHT30;63523;51.880;12.630;2023-07-24T06:53:05;23.77;57.95
74968;SHT30;63523;51.880;12.630;2023-07-24T06:55:30;23.73;57.40
74968;SHT30;63523;51.880;12.630;2023-07-24T06:57:55;23.75;57.80
74968;SHT30;63523;51.880;12.630;2023-07-24T07:00:21;23.70;56.68
74968;SHT30;63523;51.880;12.630;2023-07-24T07:02:46;23.66;57.65
74968;SHT30;63523;51.880;12.630;2023-07-24T07:05:11;23.72;57.26
74968;SHT30;63523;51.880;12.630;2023-07-24T07:07:37;23.66;57.60
74968;SHT30;63523;51.880;12.630;2023-07-24T07:10:02;23.68;57.74
74968;SHT30;63523;51.880;12.630;2023-07-24T07:12:27;23.75;58.47
74968;SHT30;63523;51.880;12.630;2023-07-24T07:14:53;23.80;57.62
74968;SHT30;63523;51.880;12.630;2023-07-24T07:17:18;23.89;57.75
74968;SHT30;63523;51.880;12.630;2023-07-24T07:19:44;24.04;56.97
74968;SHT30;63523;51.880;12.630;2023-07-24T07:22:09;24.27;56.29
74968;SHT30;63523;51.880;12.630;2023-07-24T07:24:35;24.57;56.66
74968;SHT30;63523;51.880;12.630;2023-07-24T07:27:00;24.68;54.14
74968;SHT30;63523;51.880;12.630;2023-07-24T07:29:25;24.83;54.80
74968;SHT30;63523;51.880;12.630;2023-07-24T07:31:51;25.00;53.81
74968;SHT30;63523;51.880;12.630;2023-07-24T07:34:16;25.19;53.64
74968;SHT30;63523;51.880;12.630;2023-07-24T07:36:41;25.20;52.56
74968;SHT30;63523;51.880;12.630;2023-07-24T07:39:06;25.33;52.62
74968;SHT30;63523;51.880;12.630;2023-07-24T07:41:32;25.28;51.95
74968;SHT30;63523;51.880;12.630;2023-07-24T07:43:57;25.31;51.94
74968;SHT30;63523;51.880;12.630;2023-07-24T07:46:23;25.33;51.91
74968;SHT30;63523;51.880;12.630;2023-07-24T07:48:48;25.27;51.75
74968;SHT30;63523;51.880;12.630;2023-07-24T07:51:14;25.23;52.36
74968;SHT30;63523;51.880;12.630;2023-07-24T07:53:39;25.19;53.53
74968;SHT30;63523;51.880;12.630;2023-07-24T07:56:05;25.19;53.58
74968;SHT30;63523;51.880;12.630;2023-07-24T07:58:30;25.11;52.80
74968;SHT30;63523;51.880;12.630;2023-07-24T08:00:56;25.13;53.15
74968;SHT30;63523;51.880;12.630;2023-07-24T08:03:21;25.24;52.97
74968;SHT30;63523;51.880;12.630;2023-07-24T08:05:47;25.24;52.52
74968;SHT30;63523;51.880;12.630;2023-07-24T08:08:12;25.27;53.20
74968;SHT30;63523;51.880;12.630;2023-07-24T08:10:38;25.38;53.55
74968;SHT30;63523;51.880;12.630;2023-07-24T08:13:03;25.45;53.50
74968;SHT30;63523;51.880;12.630;2023-07-24T08:15:29;25.54;51.73
74968;SHT30;63523;51.880;12.630;2023-07-24T08:17:54;25.72;51.00
74968;SHT30;63523;51.880;12.630;2023-07-24T08:20:19;25.93;50.65
74968;SHT30;63523;51.880;12.630;2023-07-24T08:22:45;26.07;51.04
74968;SHT30;63523;51.880;12.630;2023-07-24T08:25:10;26.31;50.57
74968;SHT30;63523;51.880;12.630;2023-07-24T08:27:35;26.43;50.80
74968;SHT30;63523;51.880;12.630;2023-07-24T08:30:01;26.45;50.84
74968;SHT30;63523;51.880;12.630;2023-07-24T08:32:26;26.52;50.66
74968;SHT30;63523;51.880;12.630;2023-07-24T08:34:51;26.52;50.40
74968;SHT30;63523;51.880;12.630;2023-07-24T08:37:16;26.47;49.24
74968;SHT30;63523;51.880;12.630;2023-07-24T08:39:42;26.43;50.80
74968;SHT30;63523;51.880;12.630;2023-07-24T08:42:11;26.47;49.93
74968;SHT30;63523;51.880;12.630;2023-07-24T08:44:37;26.49;49.07
74968;SHT30;63523;51.880;12.630;2023-07-24T08:47:03;26.51;49.58
74968;SHT30;63523;51.880;12.630;2023-07-24T08:49:29;26.55;49.33
74968;SHT30;63523;51.880;12.630;2023-07-24T08:51:56;26.67;49.21
74968;SHT30;63523;51.880;12.630;2023-07-24T08:54:22;26.68;47.83
74968;SHT30;63523;51.880;12.630;2023-07-24T08:56:50;26.81;46.85
74968;SHT30;63523;51.880;12.630;2023-07-24T08:59:17;26.82;46.36
74968;SHT30;63523;51.880;12.630;2023-07-24T09:01:42;26.85;46.23
74968;SHT30;63523;51.880;12.630;2023-07-24T09:04:07;26.89;46.42
74968;SHT30;63523;51.880;12.630;2023-07-24T09:06:33;26.92;45.92
74968;SHT30;63523;51.880;12.630;2023-07-24T09:08:58;26.96;47.68
74968;SHT30;63523;51.880;12.630;2023-07-24T09:11:23;27.04;46.57
74968;SHT30;63523;51.880;12.630;2023-07-24T09:13:49;27.06;46.85
74968;SHT30;63523;51.880;12.630;2023-07-24T09:16:23;27.20;44.86
74968;SHT30;63523;51.880;12.630;2023-07-24T09:18:49;27.20;45.24
74968;SHT30;63523;51.880;12.630;2023-07-24T09:21:30;27.30;44.40
74968;SHT30;63523;51.880;12.630;2023-07-24T09:23:56;27.48;43.39
74968;SHT30;63523;51.880;12.630;2023-07-24T09:26:22;27.47;43.93
74968;SHT30;63523;51.880;12.630;2023-07-24T09:28:52;27.50;44.09
74968;SHT30;63523;51.880;12.630;2023-07-24T09:31:18;27.51;44.65
74968;SHT30;63523;51.880;12.630;2023-07-24T09:33:43;27.61;44.50
74968;SHT30;63523;51.880;12.630;2023-07-24T09:36:09;27.77;44.13
74968;SHT30;63523;51.880;12.630;2023-07-24T09:38:36;27.90;43.64
74968;SHT30;63523;51.880;12.630;2023-07-24T09:41:02;28.16;43.16
74968;SHT30;63523;51.880;12.630;2023-07-24T09:43:29;28.37;42.29
74968;SHT30;63523;51.880;12.630;2023-07-24T09:45:55;28.50;41.79
74968;SHT30;63523;51.880;12.630;2023-07-24T09:48:24;28.89;41.48
74968;SHT30;63523;51.880;12.630;2023-07-24T09:50:54;29.23;40.61
74968;SHT30;63523;51.880;12.630;2023-07-24T09:53:48;29.33;40.66
74968;SHT30;63523;51.880;12.630;2023-07-24T09:56:17;29.35;39.92
74968;SHT30;63523;51.880;12.630;2023-07-24T09:58:43;29.15;39.17
74968;SHT30;63523;51.880;12.630;2023-07-24T10:01:10;28.92;39.87
74968;SHT30;63523;51.880;12.630;2023-07-24T10:03:38;28.75;39.77
74968;SHT30;63523;51.880;12.630;2023-07-24T10:08:42;28.65;41.33
74968;SHT30;63523;51.880;12.630;2023-07-24T10:11:09;28.67;40.00
74968;SHT30;63523;51.880;12.630;2023-07-24T10:13:36;28.50;39.65
74968;SHT30;63523;51.880;12.630;2023-07-24T10:16:02;28.36;40.60
74968;SHT30;63523;51.880;12.630;2023-07-24T10:18:30;28.20;40.61
74968;SHT30;63523;51.880;12.630;2023-07-24T10:21:05;28.18;40.78
74968;SHT30;63523;51.880;12.630;2023-07-24T10:23:31;28.28;40.72
74968;SHT30;63523;51.880;12.630;2023-07-24T10:26:05;28.58;41.04
74968;SHT30;63523;51.880;12.630;2023-07-24T10:28:32;28.92;39.71
74968;SHT30;63523;51.880;12.630;2023-07-24T10:30:58;29.41;38.76
74968;SHT30;63523;51.880;12.630;2023-07-24T10:33:24;29.55;39.44
74968;SHT30;63523;51.880;12.630;2023-07-24T10:35:53;29.74;39.10
74968;SHT30;63523;51.880;12.630;2023-07-24T10:38:19;29.92;39.25
74968;SHT30;63523;51.880;12.630;2023-07-24T10:40:49;29.98;38.21
74968;SHT30;63523;51.880;12.630;2023-07-24T10:43:28;29.85;38.22
74968;SHT30;63523;51.880;12.630;2023-07-24T10:45:56;29.55;38.95
74968;SHT30;63523;51.880;12.630;2023-07-24T10:48:25;29.29;38.73
74968;SHT30;63523;51.880;12.630;2023-07-24T10:50:51;29.34;38.95
74968;SHT30;63523;51.880;12.630;2023-07-24T10:53:18;29.61;38.06
74968;SHT30;63523;51.880;12.630;2023-07-24T10:55:45;29.64;37.98
74968;SHT30;63523;51.880;12.630;2023-07-24T10:58:12;29.65;38.26
74968;SHT30;63523;51.880;12.630;2023-07-24T11:00:41;29.41;38.05
74968;SHT30;63523;51.880;12.630;2023-07-24T11:03:09;29.34;38.02
74968;SHT30;63523;51.880;12.630;2023-07-24T11:05:39;29.15;37.59
74968;SHT30;63523;51.880;12.630;2023-07-24T11:08:09;29.00;38.02
74968;SHT30;63523;51.880;12.630;2023-07-24T11:13:16;28.68;38.45
74968;SHT30;63523;51.880;12.630;2023-07-24T11:15:41;28.48;39.74
74968;SHT30;63523;51.880;12.630;2023-07-24T11:18:06;28.20;39.67
74968;SHT30;63523;51.880;12.630;2023-07-24T11:20:36;28.03;40.81
74968;SHT30;63523;51.880;12.630;2023-07-24T11:23:02;27.99;40.86
74968;SHT30;63523;51.880;12.630;2023-07-24T11:25:28;28.02;41.14
74968;SHT30;63523;51.880;12.630;2023-07-24T11:27:53;28.06;41.07
74968;SHT30;63523;51.880;12.630;2023-07-24T11:30:23;28.05;39.61
74968;SHT30;63523;51.880;12.630;2023-07-24T11:32:49;28.21;39.08
74968;SHT30;63523;51.880;12.630;2023-07-24T11:35:14;28.40;39.49
74968;SHT30;63523;51.880;12.630;2023-07-24T11:37:40;28.62;39.20
74968;SHT30;63523;51.880;12.630;2023-07-24T11:40:06;29.03;39.22
74968;SHT30;63523;51.880;12.630;2023-07-24T11:42:42;29.71;37.46
74968;SHT30;63523;51.880;12.630;2023-07-24T11:45:08;30.34;37.41
74968;SHT30;63523;51.880;12.630;2023-07-24T11:47:48;30.58;35.17
74968;SHT30;63523;51.880;12.630;2023-07-24T11:50:14;30.33;35.29
74968;SHT30;63523;51.880;12.630;2023-07-24T11:52:47;30.41;37.33
74968;SHT30;63523;51.880;12.630;2023-07-24T11:55:15;30.36;38.03
74968;SHT30;63523;51.880;12.630;2023-07-24T11:57:40;30.06;36.48
74968;SHT30;63523;51.880;12.630;2023-07-24T12:00:17;29.93;37.77
74968;SHT30;63523;51.880;12.630;2023-07-24T12:02:43;29.71;37.30
74968;SHT30;63523;51.880;12.630;2023-07-24T12:05:10;29.50;37.04
74968;SHT30;63523;51.880;12.630;2023-07-24T12:07:35;29.34;37.91
74968;SHT30;63523;51.880;12.630;2023-07-24T12:10:02;29.12;37.59
74968;SHT30;63523;51.880;12.630;2023-07-24T12:12:45;29.22;38.71
74968;SHT30;63523;51.880;12.630;2023-07-24T12:15:11;29.62;38.10
74968;SHT30;63523;51.880;12.630;2023-07-24T12:17:37;29.75;36.71
74968;SHT30;63523;51.880;12.630;2023-07-24T12:20:03;29.67;37.52
74968;SHT30;63523;51.880;12.630;2023-07-24T12:22:31;29.46;36.58
74968;SHT30;63523;51.880;12.630;2023-07-24T12:24:56;29.33;37.89
74968;SHT30;63523;51.880;12.630;2023-07-24T12:27:21;29.19;37.40
74968;SHT30;63523;51.880;12.630;2023-07-24T12:29:47;29.09;37.89
74968;SHT30;63523;51.880;12.630;2023-07-24T12:32:12;29.06;38.13
74968;SHT30;63523;51.880;12.630;2023-07-24T12:34:38;28.98;38.71
74968;SHT30;63523;51.880;12.630;2023-07-24T12:37:03;28.82;38.92
74968;SHT30;63523;51.880;12.630;2023-07-24T12:39:29;28.76;38.08
74968;SHT30;63523;51.880;12.630;2023-07-24T12:41:54;28.69;38.48
74968;SHT30;63523;51.880;12.630;2023-07-24T12:44:19;28.54;38.48
74968;SHT30;63523;51.880;12.630;2023-07-24T12:46:45;28.54;38.37
74968;SHT30;63523;51.880;12.630;2023-07-24T12:49:10;28.54;38.35
74968;SHT30;63523;51.880;12.630;2023-07-24T12:51:35;28.62;38.27
74968;SHT30;63523;51.880;12.630;2023-07-24T12:54:00;28.61;37.27
74968;SHT30;63523;51.880;12.630;2023-07-24T12:56:26;28.61;37.27
74968;SHT30;63523;51.880;12.630;2023-07-24T12:58:51;28.64;37.63
74968;SHT30;63523;51.880;12.630;2023-07-24T13:01:17;28.50;38.21
74968;SHT30;63523;51.880;12.630;2023-07-24T13:03:42;28.45;37.54
74968;SHT30;63523;51.880;12.630;2023-07-24T13:06:07;28.41;37.89
74968;SHT30;63523;51.880;12.630;2023-07-24T13:08:32;28.34;37.70
74968;SHT30;63523;51.880;12.630;2023-07-24T13:10:58;28.34;38.08
74968;SHT30;63523;51.880;12.630;2023-07-24T13:13:23;28.24;37.97
74968;SHT30;63523;51.880;12.630;2023-07-24T13:15:48;28.21;37.84
74968;SHT30;63523;51.880;12.630;2023-07-24T13:18:16;28.16;38.20
74968;SHT30;63523;51.880;12.630;2023-07-24T13:20:42;28.06;38.72
74968;SHT30;63523;51.880;12.630;2023-07-24T13:23:07;27.95;38.35
74968;SHT30;63523;51.880;12.630;2023-07-24T13:25:32;27.82;39.36
74968;SHT30;63523;51.880;12.630;2023-07-24T13:27:58;27.78;39.09
74968;SHT30;63523;51.880;12.630;2023-07-24T13:30:23;27.68;39.60
74968;SHT30;63523;51.880;12.630;2023-07-24T13:32:48;27.58;40.13
74968;SHT30;63523;51.880;12.630;2023-07-24T13:35:14;27.55;39.10
74968;SHT30;63523;51.880;12.630;2023-07-24T13:37:41;27.64;40.44
74968;SHT30;63523;51.880;12.630;2023-07-24T13:40:07;27.84;39.68
74968;SHT30;63523;51.880;12.630;2023-07-24T13:42:32;27.96;39.28
74968;SHT30;63523;51.880;12.630;2023-07-24T13:44:57;28.06;37.93
74968;SHT30;63523;51.880;12.630;2023-07-24T13:47:23;28.07;39.96
74968;SHT30;63523;51.880;12.630;2023-07-24T13:49:48;28.21;39.45
74968;SHT30;63523;51.880;12.630;2023-07-24T13:52:14;28.43;39.23
74968;SHT30;63523;51.880;12.630;2023-07-24T13:54:39;28.69;39.89
74968;SHT30;63523;51.880;12.630;2023-07-24T13:57:04;28.64;38.52
74968;SHT30;63523;51.880;12.630;2023-07-24T13:59:32;28.60;38.82
74968;SHT30;63523;51.880;12.630;2023-07-24T14:01:58;28.54;39.73
74968;SHT30;63523;51.880;12.630;2023-07-24T14:04:23;28.43;38.33
74968;SHT30;63523;51.880;12.630;2023-07-24T14:06:48;28.44;38.84
74968;SHT30;63523;51.880;12.630;2023-07-24T14:09:14;28.50;38.57
74968;SHT30;63523;51.880;12.630;2023-07-24T14:11:39;28.55;38.53
74968;SHT30;63523;51.880;12.630;2023-07-24T14:14:05;28.55;38.88
74968;SHT30;63523;51.880;12.630;2023-07-24T14:16:31;28.53;38.32
74968;SHT30;63523;51.880;12.630;2023-07-24T14:18:56;28.40;39.41
74968;SHT30;63523;51.880;12.630;2023-07-24T14:21:21;28.30;39.58
74968;SHT30;63523;51.880;12.630;2023-07-24T14:23:47;28.21;38.98
74968;SHT30;63523;51.880;12.630;2023-07-24T14:26:12;28.21;39.11
74968;SHT30;63523;51.880;12.630;2023-07-24T14:28:37;28.39;39.63
74968;SHT30;63523;51.880;12.630;2023-07-24T14:31:03;28.36;40.05
74968;SHT30;63523;51.880;12.630;2023-07-24T14:33:29;28.48;40.49
74968;SHT30;63523;51.880;12.630;2023-07-24T14:35:55;28.47;40.12
74968;SHT30;63523;51.880;12.630;2023-07-24T14:38:20;28.50;40.44
74968;SHT30;63523;51.880;12.630;2023-07-24T14:40:46;28.40;40.86
74968;SHT30;63523;51.880;12.630;2023-07-24T14:43:11;28.39;41.01
74968;SHT30;63523;51.880;12.630;2023-07-24T14:45:36;28.36;41.66
74968;SHT30;63523;51.880;12.630;2023-07-24T14:48:01;28.32;41.61
74968;SHT30;63523;51.880;12.630;2023-07-24T14:50:27;28.43;42.48
74968;SHT30;63523;51.880;12.630;2023-07-24T14:52:52;28.60;41.54
74968;SHT30;63523;51.880;12.630;2023-07-24T14:55:18;28.78;40.60
74968;SHT30;63523;51.880;12.630;2023-07-24T14:57:43;28.91;39.79
74968;SHT30;63523;51.880;12.630;2023-07-24T15:00:09;28.94;39.86
74968;SHT30;63523;51.880;12.630;2023-07-24T15:02:35;28.98;39.07
74968;SHT30;63523;51.880;12.630;2023-07-24T15:05:00;28.98;38.97
74968;SHT30;63523;51.880;12.630;2023-07-24T15:07:25;28.99;39.81
74968;SHT30;63523;51.880;12.630;2023-07-24T15:09:51;28.94;39.85
74968;SHT30;63523;51.880;12.630;2023-07-24T15:12:16;29.00;39.99
74968;SHT30;63523;51.880;12.630;2023-07-24T15:14:41;28.99;39.25
74968;SHT30;63523;51.880;12.630;2023-07-24T15:17:07;28.87;39.92
74968;SHT30;63523;51.880;12.630;2023-07-24T15:19:32;28.81;40.46